sensor_id;sensor_type;location;lat;lon;timestamp;pressure;altitude;pressure_sealevel;temperature;humidity
29879;BME280;16752;53.364;-1.488;2022-08-21T00:46:46;100146.94;;;25.47;37.67
29879;BME280;16752;53.364;-1.488;2022-08-21T00:49:32;100153.53;;;25.38;37.67
29879;BME280;16752;53.364;-1.488;2022-08-21T01:03:49;100143.38;;;25.34;37.90
29879;BME280;16752;53.364;-1.488;2022-08-21T01:09:26;100139.44;;;25.23;38.04
29879;BME280;16752;53.364;-1.488;2022-08-21T01:11:57;100141.09;;;25.24;37.81
29879;BME280;16752;53.364;-1.488;2022-08-21T01:14:24;100140.63;;;25.14;38.25
29879;BME280;16752;53.364;-1.488;2022-08-21T01:16:52;100145.63;;;25.17;38.07
29879;BME280;16752;53.364;-1.488;2022-08-21T01:29:07;100151.75;;;25.11;38.36
29879;BME280;16752;53.364;-1.488;2022-08-21T01:37:59;100145.97;;;25.01;38.64
29879;BME280;16752;53.364;-1.488;2022-08-21T01:46:41;100152.09;;;24.94;38.79
29879;BME280;16752;53.364;-1.488;2022-08-21T01:54:45;100152.25;;;24.86;38.91
29879;BME280;16752;53.364;-1.488;2022-08-21T01:57:12;100157.81;;;24.85;38.97
29879;BME280;16752;53.364;-1.488;2022-08-21T02:02:16;100149.31;;;24.75;39.45
29879;BME280;16752;53.364;-1.488;2022-08-21T02:07:37;100151.94;;;24.68;39.37
29879;BME280;16752;53.364;-1.488;2022-08-21T02:10:05;100155.00;;;24.65;39.63
29879;BME280;16752;53.364;-1.488;2022-08-21T02:12:59;100153.16;;;24.65;39.52
29879;BME280;16752;53.364;-1.488;2022-08-21T02:32:40;100152.69;;;24.55;39.82
29879;BME280;16752;53.364;-1.488;2022-08-21T02:35:20;100152.72;;;24.62;39.48
29879;BME280;16752;53.364;-1.488;2022-08-21T02:40:38;100148.56;;;24.53;39.76
29879;BME280;16752;53.364;-1.488;2022-08-21T02:43:34;100141.16;;;24.55;39.61
29879;BME280;16752;53.364;-1.488;2022-08-21T02:46:08;100132.69;;;24.51;39.54
29879;BME280;16752;53.364;-1.488;2022-08-21T02:48:33;100137.19;;;24.51;39.82
29879;BME280;16752;53.364;-1.488;2022-08-21T02:51:04;100135.75;;;24.48;39.60
29879;BME280;16752;53.364;-1.488;2022-08-21T02:53:31;100140.28;;;24.48;39.97
29879;BME280;16752;53.364;-1.488;2022-08-21T02:56:02;100136.56;;;24.49;39.79
29879;BME280;16752;53.364;-1.488;2022-08-21T02:58:40;100141.09;;;24.48;39.94
29879;BME280;16752;53.364;-1.488;2022-08-21T03:04:00;100133.31;;;24.53;39.87
29879;BME280;16752;53.364;-1.488;2022-08-21T03:06:28;100132.31;;;24.54;40.04
29879;BME280;16752;53.364;-1.488;2022-08-21T03:09:00;100127.38;;;24.58;39.96
29879;BME280;16752;53.364;-1.488;2022-08-21T03:17:15;100113.59;;;24.61;39.45
29879;BME280;16752;53.364;-1.488;2022-08-21T03:20:03;100118.50;;;24.57;39.58
29879;BME280;16752;53.364;-1.488;2022-08-21T03:31:02;100109.59;;;24.50;40.00
29879;BME280;16752;53.364;-1.488;2022-08-21T03:33:34;100107.38;;;24.54;39.94
29879;BME280;16752;53.364;-1.488;2022-08-21T03:36:08;100108.00;;;24.56;39.96
29879;BME280;16752;53.364;-1.488;2022-08-21T03:41:03;100114.38;;;24.55;40.10
29879;BME280;16752;53.364;-1.488;2022-08-21T03:54:19;100132.97;;;24.63;40.41
29879;BME280;16752;53.364;-1.488;2022-08-21T03:56:47;100137.31;;;24.71;40.02
29879;BME280;16752;53.364;-1.488;2022-08-21T04:01:56;100133.44;;;24.73;40.80
29879;BME280;16752;53.364;-1.488;2022-08-21T04:04:34;100140.81;;;24.71;40.93
29879;BME280;16752;53.364;-1.488;2022-08-21T04:12:41;100135.81;;;24.55;41.30
29879;BME280;16752;53.364;-1.488;2022-08-21T04:15:06;100136.22;;;24.52;41.60
29879;BME280;16752;53.364;-1.488;2022-08-21T04:17:33;100141.56;;;24.52;41.41
29879;BME280;16752;53.364;-1.488;2022-08-21T04:20:00;100146.94;;;24.58;41.65
29879;BME280;16752;53.364;-1.488;2022-08-21T04:22:51;100149.81;;;24.57;41.52
29879;BME280;16752;53.364;-1.488;2022-08-21T04:25:18;100160.97;;;24.60;41.71
29879;BME280;16752;53.364;-1.488;2022-08-21T04:27:45;100160.97;;;24.60;41.64
29879;BME280;16752;53.364;-1.488;2022-08-21T04:30:12;100166.75;;;24.64;41.59
29879;BME280;16752;53.364;-1.488;2022-08-21T04:32:43;100170.69;;;24.68;41.83
29879;BME280;16752;53.364;-1.488;2022-08-21T04:37:46;100163.63;;;24.54;42.85
29879;BME280;16752;53.364;-1.488;2022-08-21T04:40:15;100159.66;;;24.50;42.91
29879;BME280;16752;53.364;-1.488;2022-08-21T04:42:47;100159.84;;;24.48;43.49
29879;BME280;16752;53.364;-1.488;2022-08-21T04:45:17;100156.09;;;24.43;43.69
29879;BME280;16752;53.364;-1.488;2022-08-21T04:47:45;100151.56;;;24.43;43.81
29879;BME280;16752;53.364;-1.488;2022-08-21T04:50:10;100166.59;;;24.37;43.84
29879;BME280;16752;53.364;-1.488;2022-08-21T04:52:36;100172.75;;;24.38;44.05
29879;BME280;16752;53.364;-1.488;2022-08-21T04:55:02;100178.94;;;24.38;44.12
29879;BME280;16752;53.364;-1.488;2022-08-21T04:57:29;100185.72;;;24.34;44.55
29879;BME280;16752;53.364;-1.488;2022-08-21T04:59:55;100179.34;;;24.35;44.61
29879;BME280;16752;53.364;-1.488;2022-08-21T05:02:20;100186.13;;;24.31;44.46
29879;BME280;16752;53.364;-1.488;2022-08-21T05:04:48;100188.28;;;24.28;44.54
29879;BME280;16752;53.364;-1.488;2022-08-21T05:07:17;100194.97;;;24.32;44.66
29879;BME280;16752;53.364;-1.488;2022-08-21T05:09:43;100199.94;;;24.35;44.60
29879;BME280;16752;53.364;-1.488;2022-08-21T05:12:09;100198.72;;;24.37;44.67
29879;BME280;16752;53.364;-1.488;2022-08-21T05:14:35;100205.53;;;24.40;44.89
29879;BME280;16752;53.364;-1.488;2022-08-21T05:17:01;100197.09;;;24.43;44.80
29879;BME280;16752;53.364;-1.488;2022-08-21T05:19:26;100191.34;;;24.46;44.86
29879;BME280;16752;53.364;-1.488;2022-08-21T05:21:52;100195.88;;;24.46;44.90
29879;BME280;16752;53.364;-1.488;2022-08-21T05:24:19;100203.28;;;24.44;44.94
29879;BME280;16752;53.364;-1.488;2022-08-21T05:26:45;100204.31;;;24.43;44.97
29879;BME280;16752;53.364;-1.488;2022-08-21T05:29:11;100210.09;;;24.46;45.02
29879;BME280;16752;53.364;-1.488;2022-08-21T05:31:39;100213.59;;;24.47;44.95
29879;BME280;16752;53.364;-1.488;2022-08-21T05:34:05;100212.34;;;24.43;45.07
29879;BME280;16752;53.364;-1.488;2022-08-21T05:36:30;100219.34;;;24.44;45.14
29879;BME280;16752;53.364;-1.488;2022-08-21T05:38:56;100218.97;;;24.47;45.25
29879;BME280;16752;53.364;-1.488;2022-08-21T05:41:22;100218.56;;;24.50;45.30
29879;BME280;16752;53.364;-1.488;2022-08-21T05:43:47;100232.63;;;24.52;45.19
29879;BME280;16752;53.364;-1.488;2022-08-21T05:46:13;100222.78;;;24.59;45.11
29879;BME280;16752;53.364;-1.488;2022-08-21T05:48:39;100240.09;;;24.63;45.11
29879;BME280;16752;53.364;-1.488;2022-08-21T05:51:05;100231.66;;;24.66;45.09
29879;BME280;16752;53.364;-1.488;2022-08-21T05:53:31;100236.00;;;24.67;44.73
29879;BME280;16752;53.364;-1.488;2022-08-21T05:55:57;100237.91;;;24.73;44.73
29879;BME280;16752;53.364;-1.488;2022-08-21T05:58:23;100242.06;;;24.76;44.52
29879;BME280;16752;53.364;-1.488;2022-08-21T06:00:49;100245.56;;;24.76;44.63
29879;BME280;16752;53.364;-1.488;2022-08-21T06:03:17;100244.34;;;24.79;44.57
29879;BME280;16752;53.364;-1.488;2022-08-21T06:05:44;100247.84;;;24.79;44.41
29879;BME280;16752;53.364;-1.488;2022-08-21T06:08:11;100245.59;;;24.83;44.46
29879;BME280;16752;53.364;-1.488;2022-08-21T06:10:37;100244.81;;;24.89;44.72
29879;BME280;16752;53.364;-1.488;2022-08-21T06:13:03;100248.31;;;24.89;44.72
29879;BME280;16752;53.364;-1.488;2022-08-21T06:15:30;100244.22;;;24.93;44.62
29879;BME280;16752;53.364;-1.488;2022-08-21T06:17:55;100253.38;;;24.99;44.51
29879;BME280;16752;53.364;-1.488;2022-08-21T06:20:22;100254.66;;;25.10;44.67
29879;BME280;16752;53.364;-1.488;2022-08-21T06:22:51;100253.28;;;25.20;44.17
29879;BME280;16752;53.364;-1.488;2022-08-21T06:25:16;100254.34;;;25.26;43.68
29879;BME280;16752;53.364;-1.488;2022-08-21T06:27:43;100258.66;;;25.27;43.82
29879;BME280;16752;53.364;-1.488;2022-08-21T06:30:09;100262.59;;;25.31;43.81
29879;BME280;16752;53.364;-1.488;2022-08-21T06:32:34;100253.75;;;25.37;43.78
29879;BME280;16752;53.364;-1.488;2022-08-21T06:35:00;100252.97;;;25.43;43.92
29879;BME280;16752;53.364;-1.488;2022-08-21T06:37:26;100258.56;;;25.48;43.98
29879;BME280;16752;53.364;-1.488;2022-08-21T06:39:52;100258.56;;;25.48;43.82
29879;BME280;16752;53.364;-1.488;2022-08-21T06:42:18;100255.25;;;25.46;43.85
29879;BME280;16752;53.364;-1.488;2022-08-21T06:44:46;100256.88;;;25.41;43.38
29879;BME280;16752;53.364;-1.488;2022-08-21T06:47:13;100260.81;;;25.38;43.24
29879;BME280;16752;53.364;-1.488;2022-08-21T06:52:38;100256.06;;;25.40;43.24
29879;BME280;16752;53.364;-1.488;2022-08-21T06:55:05;100261.84;;;25.44;42.83
29879;BME280;16752;53.364;-1.488;2022-08-21T06:57:33;100251.13;;;25.50;42.74
29879;BME280;16752;53.364;-1.488;2022-08-21T06:59:59;100258.34;;;25.50;42.99
29879;BME280;16752;53.364;-1.488;2022-08-21T07:02:26;100262.06;;;25.49;43.23
29879;BME280;16752;53.364;-1.488;2022-08-21T07:04:54;100254.44;;;25.52;42.80
29879;BME280;16752;53.364;-1.488;2022-08-21T07:07:21;100257.59;;;25.63;42.76
29879;BME280;16752;53.364;-1.488;2022-08-21T07:09:48;100253.00;;;25.56;40.63
29879;BME280;16752;53.364;-1.488;2022-08-21T07:12:18;100249.91;;;25.53;41.04
29879;BME280;16752;53.364;-1.488;2022-08-21T07:14:47;100257.53;;;25.49;41.08
29879;BME280;16752;53.364;-1.488;2022-08-21T07:17:16;100265.00;;;25.61;41.62
29879;BME280;16752;53.364;-1.488;2022-08-21T07:23:07;100275.88;;;25.94;40.22
29879;BME280;16752;53.364;-1.488;2022-08-21T07:26:08;100270.50;;;25.87;39.09
29879;BME280;16752;53.364;-1.488;2022-08-21T07:28:35;100271.28;;;25.81;39.45
29879;BME280;16752;53.364;-1.488;2022-08-21T07:31:01;100259.34;;;25.90;39.82
29879;BME280;16752;53.364;-1.488;2022-08-21T07:33:27;100268.22;;;25.97;39.14
29879;BME280;16752;53.364;-1.488;2022-08-21T07:35:53;100269.09;;;26.17;39.57
29879;BME280;16752;53.364;-1.488;2022-08-21T07:41:15;100280.50;;;26.39;37.59
29879;BME280;16752;53.364;-1.488;2022-08-21T07:43:41;100281.34;;;26.53;37.58
29879;BME280;16752;53.364;-1.488;2022-08-21T07:46:08;100285.25;;;26.64;37.16
29879;BME280;16752;53.364;-1.488;2022-08-21T07:48:39;100283.59;;;26.63;35.87
29879;BME280;16752;53.364;-1.488;2022-08-21T07:51:06;100275.16;;;26.72;35.66
29879;BME280;16752;53.364;-1.488;2022-08-21T07:53:35;100273.69;;;26.76;34.59
29879;BME280;16752;53.364;-1.488;2022-08-21T07:56:01;100285.06;;;26.59;34.97
29879;BME280;16752;53.364;-1.488;2022-08-21T08:12:13;100291.47;;;26.77;33.80
29879;BME280;16752;53.364;-1.488;2022-08-21T08:21:37;100284.41;;;27.16;35.06
29879;BME280;16752;53.364;-1.488;2022-08-21T08:27:27;100276.78;;;27.71;34.50
29879;BME280;16752;53.364;-1.488;2022-08-21T08:30:12;100271.66;;;27.94;33.42
29879;BME280;16752;53.364;-1.488;2022-08-21T08:32:56;100284.56;;;28.17;33.26
29879;BME280;16752;53.364;-1.488;2022-08-21T08:45:20;100280.56;;;28.33;29.62
29879;BME280;16752;53.364;-1.488;2022-08-21T08:56:40;100288.94;;;29.18;27.98
29879;BME280;16752;53.364;-1.488;2022-08-21T08:59:12;100289.91;;;29.24;28.50
29879;BME280;16752;53.364;-1.488;2022-08-21T09:01:41;100294.25;;;29.25;28.44
29879;BME280;16752;53.364;-1.488;2022-08-21T10:04:53;100305.72;;;29.20;27.06
29879;BME280;16752;53.364;-1.488;2022-08-21T10:35:42;100313.41;;;29.90;27.12
29879;BME280;16752;53.364;-1.488;2022-08-21T10:44:19;100304.19;;;29.97;26.52
29879;BME280;16752;53.364;-1.488;2022-08-21T10:55:00;100307.84;;;30.33;26.40
29879;BME280;16752;53.364;-1.488;2022-08-21T11:06:52;100317.06;;;29.65;26.78
29879;BME280;16752;53.364;-1.488;2022-08-21T11:09:20;100311.19;;;29.87;27.36
29879;BME280;16752;53.364;-1.488;2022-08-21T11:11:56;100305.28;;;30.38;27.21
29879;BME280;16752;53.364;-1.488;2022-08-21T11:17:13;100301.25;;;31.29;26.23
29879;BME280;16752;53.364;-1.488;2022-08-21T11:23:33;100314.31;;;30.85;25.17
29879;BME280;16752;53.364;-1.488;2022-08-21T11:26:22;100314.53;;;30.30;25.80
29879;BME280;16752;53.364;-1.488;2022-08-21T11:29:31;100322.28;;;30.27;26.73
29879;BME280;16752;53.364;-1.488;2022-08-21T11:35:16;100329.84;;;29.88;26.84
29879;BME280;16752;53.364;-1.488;2022-08-21T11:41:06;100324.06;;;30.03;27.16
29879;BME280;16752;53.364;-1.488;2022-08-21T11:44:10;100305.03;;;29.98;27.26
29879;BME280;16752;53.364;-1.488;2022-08-21T11:49:23;100309.00;;;30.67;26.57
29879;BME280;16752;53.364;-1.488;2022-08-21T11:55:49;100316.63;;;31.40;25.26
29879;BME280;16752;53.364;-1.488;2022-08-21T11:58:25;100320.72;;;31.54;24.25
29879;BME280;16752;53.364;-1.488;2022-08-21T12:01:24;100313.81;;;31.47;24.74
29879;BME280;16752;53.364;-1.488;2022-08-21T12:04:28;100317.09;;;31.49;25.69
29879;BME280;16752;53.364;-1.488;2022-08-21T12:13:34;100320.81;;;31.59;25.19
29879;BME280;16752;53.364;-1.488;2022-08-21T12:58:04;100317.38;;;32.04;24.68
29879;BME280;16752;53.364;-1.488;2022-08-21T13:04:17;100305.88;;;31.97;24.85
29879;BME280;16752;53.364;-1.488;2022-08-21T13:29:15;100319.47;;;32.42;23.33
29879;BME280;16752;53.364;-1.488;2022-08-21T13:56:40;100313.13;;;31.80;23.14
29879;BME280;16752;53.364;-1.488;2022-08-21T13:59:48;100316.19;;;32.12;23.55
29879;BME280;16752;53.364;-1.488;2022-08-21T14:23:32;100300.91;;;33.23;22.96
29879;BME280;16752;53.364;-1.488;2022-08-21T14:32:13;100305.97;;;33.58;22.14
29879;BME280;16752;53.364;-1.488;2022-08-21T14:34:45;100311.41;;;33.58;22.62
29879;BME280;16752;53.364;-1.488;2022-08-21T14:37:19;100305.66;;;33.55;21.98
29879;BME280;16752;53.364;-1.488;2022-08-21T14:40:22;100304.53;;;33.51;22.22
29879;BME280;16752;53.364;-1.488;2022-08-21T15:34:30;100293.88;;;36.95;18.76
29879;BME280;16752;53.364;-1.488;2022-08-21T16:21:33;100288.88;;;35.13;20.34
29879;BME280;16752;53.364;-1.488;2022-08-21T16:56:07;100281.28;;;31.87;25.28
29879;BME280;16752;53.364;-1.488;2022-08-21T17:04:15;100267.53;;;31.48;25.50
29879;BME280;16752;53.364;-1.488;2022-08-21T17:07:41;100269.34;;;31.31;25.97
29879;BME280;16752;53.364;-1.488;2022-08-21T17:10:08;100277.91;;;31.16;26.47
29879;BME280;16752;53.364;-1.488;2022-08-21T17:12:56;100276.53;;;31.02;26.23
29879;BME280;16752;53.364;-1.488;2022-08-21T17:15:29;100273.34;;;30.93;26.99
29879;BME280;16752;53.364;-1.488;2022-08-21T17:17:56;100274.66;;;30.91;26.60
29879;BME280;16752;53.364;-1.488;2022-08-21T17:20:38;100277.03;;;30.87;27.06
29879;BME280;16752;53.364;-1.488;2022-08-21T17:23:04;100280.78;;;30.86;27.03
29879;BME280;16752;53.364;-1.488;2022-08-21T17:25:34;100281.25;;;30.83;26.93
29879;BME280;16752;53.364;-1.488;2022-08-21T17:28:07;100282.88;;;30.73;27.33
29879;BME280;16752;53.364;-1.488;2022-08-21T17:30:39;100285.81;;;30.59;27.12
29879;BME280;16752;53.364;-1.488;2022-08-21T17:33:10;100283.19;;;30.53;27.69
29879;BME280;16752;53.364;-1.488;2022-08-21T17:35:36;100281.31;;;30.41;27.30
29879;BME280;16752;53.364;-1.488;2022-08-21T17:38:01;100277.28;;;30.32;27.80
29879;BME280;16752;53.364;-1.488;2022-08-21T17:40:45;100282.81;;;30.26;27.66
29879;BME280;16752;53.364;-1.488;2022-08-21T17:43:16;100277.97;;;30.16;28.14
29879;BME280;16752;53.364;-1.488;2022-08-21T17:48:24;100287.75;;;29.99;28.37
29879;BME280;16752;53.364;-1.488;2022-08-21T17:50:52;100285.34;;;29.91;28.71
29879;BME280;16752;53.364;-1.488;2022-08-21T17:53:29;100284.63;;;29.84;28.88
29879;BME280;16752;53.364;-1.488;2022-08-21T17:59:33;100293.59;;;29.66;29.42
29879;BME280;16752;53.364;-1.488;2022-08-21T18:02:26;100294.38;;;29.55;29.52
29879;BME280;16752;53.364;-1.488;2022-08-21T18:05:09;100294.72;;;29.40;30.26
29879;BME280;16752;53.364;-1.488;2022-08-21T18:11:08;100292.31;;;29.13;30.64
29879;BME280;16752;53.364;-1.488;2022-08-21T18:14:15;100293.25;;;29.01;31.24
29879;BME280;16752;53.364;-1.488;2022-08-21T18:17:21;100292.81;;;28.85;31.51
29879;BME280;16752;53.364;-1.488;2022-08-21T18:19:55;100301.97;;;28.78;31.31
29879;BME280;16752;53.364;-1.488;2022-08-21T18:22:34;100299.56;;;28.70;31.24
29879;BME280;16752;53.364;-1.488;2022-08-21T18:25:09;100305.44;;;28.60;31.50
29879;BME280;16752;53.364;-1.488;2022-08-21T18:27:40;100304.66;;;28.53;31.64
29879;BME280;16752;53.364;-1.488;2022-08-21T18:30:17;100304.72;;;28.46;31.87
29879;BME280;16752;53.364;-1.488;2022-08-21T18:32:54;100307.66;;;28.38;32.41
29879;BME280;16752;53.364;-1.488;2022-08-21T18:35:40;100313.94;;;28.32;32.54
29879;BME280;16752;53.364;-1.488;2022-08-21T18:38:07;100310.47;;;28.25;32.82
29879;BME280;16752;53.364;-1.488;2022-08-21T18:40:36;100310.06;;;28.15;32.90
29879;BME280;16752;53.364;-1.488;2022-08-21T18:43:18;100310.34;;;28.07;33.13
29879;BME280;16752;53.364;-1.488;2022-08-21T18:46:16;100306.22;;;27.97;33.10
29879;BME280;16752;53.364;-1.488;2022-08-21T18:48:54;100311.44;;;27.92;33.20
29879;BME280;16752;53.364;-1.488;2022-08-21T18:51:20;100315.00;;;27.86;33.34
29879;BME280;16752;53.364;-1.488;2022-08-21T18:53:51;100313.56;;;27.84;33.51
29879;BME280;16752;53.364;-1.488;2022-08-21T18:56:27;100309.88;;;27.78;33.69
29879;BME280;16752;53.364;-1.488;2022-08-21T18:58:58;100316.72;;;27.74;34.07
29879;BME280;16752;53.364;-1.488;2022-08-21T19:01:41;100325.03;;;27.66;34.13
29879;BME280;16752;53.364;-1.488;2022-08-21T19:04:12;100319.66;;;27.59;34.27
29879;BME280;16752;53.364;-1.488;2022-08-21T19:06:50;100318.44;;;27.55;34.40
29879;BME280;16752;53.364;-1.488;2022-08-21T19:09:19;100318.44;;;27.49;34.34
29879;BME280;16752;53.364;-1.488;2022-08-21T19:11:54;100320.94;;;27.44;34.31
29879;BME280;16752;53.364;-1.488;2022-08-21T19:14:24;100328.41;;;27.42;34.03
29879;BME280;16752;53.364;-1.488;2022-08-21T19:16:53;100320.16;;;27.36;34.02
29879;BME280;16752;53.364;-1.488;2022-08-21T19:19:21;100330.50;;;27.33;34.34
29879;BME280;16752;53.364;-1.488;2022-08-21T19:21:53;100336.28;;;27.30;34.23
29879;BME280;16752;53.364;-1.488;2022-08-21T19:24:27;100324.50;;;27.24;34.58
29879;BME280;16752;53.364;-1.488;2022-08-21T19:26:56;100339.22;;;27.22;34.62
29879;BME280;16752;53.364;-1.488;2022-08-21T19:29:27;100337.16;;;27.17;34.71
29879;BME280;16752;53.364;-1.488;2022-08-21T19:31:55;100336.53;;;27.15;34.79
29879;BME280;16752;53.364;-1.488;2022-08-21T19:34:41;100337.16;;;27.10;35.23
29879;BME280;16752;53.364;-1.488;2022-08-21T19:37:23;100351.41;;;27.11;35.22
29879;BME280;16752;53.364;-1.488;2022-08-21T19:39:52;100349.59;;;27.12;35.44
29879;BME280;16752;53.364;-1.488;2022-08-21T19:46:14;100353.09;;;27.12;35.30
29879;BME280;16752;53.364;-1.488;2022-08-21T19:49:37;100354.09;;;27.11;35.29
29879;BME280;16752;53.364;-1.488;2022-08-21T19:55:58;100358.88;;;27.09;35.41
29879;BME280;16752;53.364;-1.488;2022-08-21T20:02:34;100356.78;;;26.98;35.46
29879;BME280;16752;53.364;-1.488;2022-08-21T20:05:54;100351.44;;;26.91;35.75
29879;BME280;16752;53.364;-1.488;2022-08-21T20:22:12;100342.94;;;26.55;36.11
29879;BME280;16752;53.364;-1.488;2022-08-21T20:28:28;100348.06;;;26.43;36.24
29879;BME280;16752;53.364;-1.488;2022-08-21T20:31:31;100351.38;;;26.38;36.36
29879;BME280;16752;53.364;-1.488;2022-08-21T20:38:00;100348.28;;;26.41;36.31
29879;BME280;16752;53.364;-1.488;2022-08-21T20:40:51;100354.91;;;26.45;36.61
29879;BME280;16752;53.364;-1.488;2022-08-21T20:43:36;100355.53;;;26.47;36.52
29879;BME280;16752;53.364;-1.488;2022-08-21T21:03:40;100356.59;;;26.73;36.69
29879;BME280;16752;53.364;-1.488;2022-08-21T21:06:30;100360.72;;;26.75;36.95
29879;BME280;16752;53.364;-1.488;2022-08-21T21:28:13;100345.84;;;26.93;35.85
29879;BME280;16752;53.364;-1.488;2022-08-21T21:33:32;100363.84;;;26.92;35.56
29879;BME280;16752;53.364;-1.488;2022-08-21T21:39:07;100363.84;;;26.92;35.54
29879;BME280;16752;53.364;-1.488;2022-08-21T21:41:36;100360.94;;;26.94;34.93
29879;BME280;16752;53.364;-1.488;2022-08-21T21:44:37;100369.00;;;26.94;34.53
29879;BME280;16752;53.364;-1.488;2022-08-21T21:47:39;100366.94;;;26.96;34.14
29879;BME280;16752;53.364;-1.488;2022-08-21T22:14:43;100397.53;;;26.82;33.65
29879;BME280;16752;53.364;-1.488;2022-08-21T22:19:41;100392.34;;;26.60;35.45
29879;BME280;16752;53.364;-1.488;2022-08-21T22:22:14;100392.94;;;26.49;35.70
29879;BME280;16752;53.364;-1.488;2022-08-21T22:27:32;100393.66;;;26.16;36.89
29879;BME280;16752;53.364;-1.488;2022-08-21T22:33:39;100399.09;;;25.82;39.12
29879;BME280;16752;53.364;-1.488;2022-08-21T22:36:42;100391.34;;;25.66;39.87
29879;BME280;16752;53.364;-1.488;2022-08-21T22:39:41;100392.28;;;25.51;40.22
29879;BME280;16752;53.364;-1.488;2022-08-21T22:42:22;100392.03;;;25.46;40.42
29879;BME280;16752;53.364;-1.488;2022-08-21T22:45:06;100388.25;;;25.34;40.97
29879;BME280;16752;53.364;-1.488;2022-08-21T22:48:02;100381.19;;;25.26;41.27
29879;BME280;16752;53.364;-1.488;2022-08-21T22:51:25;100381.97;;;25.20;41.51
29879;BME280;16752;53.364;-1.488;2022-08-21T22:54:35;100385.22;;;25.16;41.81
29879;BME280;16752;53.364;-1.488;2022-08-21T22:57:27;100383.13;;;25.11;41.79
29879;BME280;16752;53.364;-1.488;2022-08-21T23:38:02;100341.81;;;24.78;42.51
29879;BME280;16752;53.364;-1.488;2022-08-21T23:41:14;100344.25;;;24.73;42.82
29879;BME280;16752;53.364;-1.488;2022-08-21T23:55:31;100351.19;;;24.67;42.87
